createdAt,value
2018-10-11T00:00:29.290Z,82.00
2018-10-11T00:02:58.815Z,82.30
2018-10-11T00:05:28.038Z,82.80
2018-10-11T00:07:57.742Z,83.00
2018-10-11T00:10:27.491Z,83.30
2018-10-11T00:12:57.172Z,83.80
2018-10-11T00:15:26.421Z,84.10
2018-10-11T00:17:56.321Z,84.40
2018-10-11T00:20:25.401Z,85.10
2018-10-11T00:22:54.556Z,85.60
2018-10-11T00:25:23.829Z,86.10
2018-10-11T00:27:52.877Z,86.20
2018-10-11T00:30:22.674Z,86.60
2018-10-11T00:32:51.708Z,86.70
2018-10-11T00:35:20.884Z,87.10
2018-10-11T00:37:50.028Z,87.40
2018-10-11T00:40:19.098Z,87.80
2018-10-11T00:42:48.728Z,88.80
2018-10-11T00:45:17.875Z,88.30
2018-10-11T00:47:46.952Z,88.50
2018-10-11T00:50:16.026Z,88.60
2018-10-11T00:52:45.081Z,88.90
2018-10-11T00:55:14.182Z,89.10
2018-10-11T00:57:43.472Z,89.50
2018-10-11T01:00:12.731Z,89.40
2018-10-11T01:02:42.042Z,89.80
2018-10-11T01:05:11.181Z,90.00
2018-10-11T01:07:40.485Z,90.00
2018-10-11T01:10:09.889Z,90.10
2018-10-11T01:12:39.106Z,89.90
2018-10-11T01:15:08.239Z,90.90
2018-10-11T01:17:37.458Z,89.70
2018-10-11T01:20:06.617Z,89.80
2018-10-11T01:22:35.743Z,89.60
2018-10-11T01:25:04.874Z,90.00
2018-10-11T01:27:34.430Z,89.50
2018-10-11T01:30:03.592Z,89.80
2018-10-11T01:32:32.615Z,89.50
2018-10-11T01:35:01.816Z,89.70
2018-10-11T01:37:30.886Z,89.20
2018-10-11T01:40:00.015Z,89.90
2018-10-11T01:42:31.429Z,90.30
2018-10-11T01:45:01.301Z,90.40
2018-10-11T01:47:30.886Z,90.20
2018-10-11T01:50:00.017Z,90.90
2018-10-11T01:52:29.206Z,90.60
2018-10-11T01:54:58.325Z,90.70
2018-10-11T01:57:27.440Z,91.20
2018-10-11T01:59:56.558Z,91.20
2018-10-11T02:02:25.615Z,91.70
2018-10-11T02:04:55.224Z,91.10
2018-10-11T02:07:24.340Z,90.80
2018-10-11T02:09:53.528Z,90.90
2018-10-11T02:12:22.592Z,91.30
2018-10-11T02:14:51.656Z,90.80
2018-10-11T02:17:20.870Z,90.60
2018-10-11T02:19:49.891Z,90.80
2018-10-11T02:22:19.609Z,90.40
2018-10-11T02:24:49.975Z,90.00
2018-10-11T02:27:19.057Z,89.50
2018-10-11T02:29:48.328Z,89.20
2018-10-11T02:32:18.174Z,88.60
2018-10-11T02:34:47.289Z,88.70
2018-10-11T02:37:17.045Z,88.70
2018-10-11T02:39:46.142Z,89.00
2018-10-11T02:42:15.288Z,89.70
2018-10-11T02:44:44.401Z,89.10
2018-10-11T02:47:13.660Z,89.30
2018-10-11T02:49:43.182Z,89.30
2018-10-11T02:52:12.932Z,89.60
2018-10-11T02:54:42.673Z,89.50
2018-10-11T02:57:22.952Z,89.60
2018-10-11T02:59:52.130Z,89.60
2018-10-11T03:02:21.995Z,89.60
2018-10-11T03:04:51.325Z,89.90
2018-10-11T03:07:20.761Z,89.10
2018-10-11T03:09:49.867Z,88.90
2018-10-11T03:12:19.708Z,88.60
2018-10-11T03:14:49.408Z,88.50
2018-10-11T03:17:18.505Z,88.10
2018-10-11T03:21:17.026Z,88.10
2018-10-11T03:23:46.154Z,87.80
2018-10-11T03:26:15.248Z,88.10
2018-10-11T03:28:45.528Z,88.40
2018-10-11T03:31:14.722Z,88.50
2018-10-11T03:33:43.815Z,88.70
2018-10-11T03:36:12.887Z,89.00
2018-10-11T03:38:42.057Z,88.90
2018-10-11T03:41:11.123Z,88.40
2018-10-11T03:43:40.354Z,88.50
2018-10-11T03:46:09.452Z,88.60
2018-10-11T03:48:38.597Z,88.60
2018-10-11T03:51:08.469Z,88.60
2018-10-11T03:53:37.616Z,88.90
2018-10-11T03:56:06.933Z,89.10
2018-10-11T03:58:36.099Z,89.50
2018-10-11T04:01:05.270Z,89.80
2018-10-11T04:03:34.353Z,90.00
2018-10-11T04:06:03.431Z,90.40
2018-10-11T04:08:32.982Z,90.60
2018-10-11T04:11:02.518Z,90.60
2018-10-11T04:13:31.592Z,90.70
2018-10-11T04:16:00.641Z,90.40
2018-10-11T04:18:29.728Z,91.00
2018-10-11T04:20:58.771Z,89.80
2018-10-11T04:23:29.223Z,88.90
2018-10-11T04:25:59.027Z,88.70
2018-10-11T04:28:29.138Z,88.40
2018-10-11T04:30:59.258Z,87.80
2018-10-11T04:33:29.170Z,88.00
2018-10-11T04:35:58.777Z,87.80
2018-10-11T04:38:28.620Z,88.20
2018-10-11T04:40:57.755Z,88.00
2018-10-11T04:43:27.515Z,87.90
2018-10-11T04:45:56.608Z,87.90
2018-10-11T04:48:25.696Z,88.30
2018-10-11T04:50:54.952Z,88.40
2018-10-11T04:53:24.234Z,88.40
2018-10-11T04:55:53.421Z,88.70
2018-10-11T04:58:22.738Z,88.40
2018-10-11T05:00:51.889Z,88.70
2018-10-11T05:03:20.996Z,89.00
2018-10-11T05:05:50.162Z,88.90
2018-10-11T05:08:20.131Z,90.00
2018-10-11T05:10:49.460Z,89.30
2018-10-11T05:13:18.630Z,88.90
2018-10-11T05:15:47.717Z,89.00
2018-10-11T05:18:17.819Z,88.60
2018-10-11T05:20:46.964Z,88.20
2018-10-11T05:23:16.109Z,88.00
2018-10-11T05:25:45.283Z,87.50
2018-10-11T05:28:14.405Z,87.10
2018-10-11T05:30:45.677Z,86.70
2018-10-11T05:33:15.376Z,86.40
2018-10-11T05:35:44.540Z,85.90
2018-10-11T05:38:13.809Z,85.70
2018-10-11T05:40:42.933Z,85.80
2018-10-11T05:43:13.195Z,85.30
2018-10-11T05:45:43.908Z,85.60
2018-10-11T05:48:13.123Z,85.40
2018-10-11T05:50:42.224Z,85.10
2018-10-11T05:53:11.581Z,85.00
2018-10-11T05:55:40.787Z,85.70
2018-10-11T05:58:10.361Z,84.50
2018-10-11T06:00:40.300Z,83.70
2018-10-11T06:03:09.568Z,83.60
2018-10-11T06:05:39.475Z,83.10
2018-10-11T06:08:08.821Z,82.80
2018-10-11T06:10:41.316Z,83.00
2018-10-11T06:13:11.261Z,83.60
2018-10-11T06:15:40.984Z,82.40
2018-10-11T06:18:11.156Z,81.40
2018-10-11T06:20:40.522Z,79.10
2018-10-11T06:23:10.045Z,77.80
2018-10-11T06:25:39.427Z,76.60
2018-10-11T06:28:12.048Z,75.30
2018-10-11T06:30:41.898Z,73.80
2018-10-11T06:33:11.077Z,73.10
2018-10-11T06:35:40.271Z,71.60
2018-10-11T06:38:10.063Z,70.70
2018-10-11T06:40:40.008Z,71.50
2018-10-11T06:43:09.172Z,71.50
2018-10-11T06:45:38.425Z,70.90
2018-10-11T06:48:09.302Z,70.40
2018-10-11T06:50:39.100Z,70.00
2018-10-11T06:53:11.775Z,69.20
2018-10-11T06:55:41.084Z,68.20
2018-10-11T06:58:10.310Z,68.30
2018-10-11T07:00:40.328Z,67.30
2018-10-11T07:03:09.488Z,67.00
2018-10-11T07:05:38.599Z,67.60
2018-10-11T07:08:07.783Z,66.90
2018-10-11T07:10:36.915Z,66.10
2018-10-11T07:13:06.012Z,64.70
2018-10-11T07:15:35.738Z,64.50
2018-10-11T07:18:05.844Z,63.50
2018-10-11T07:20:35.011Z,61.60
2018-10-11T07:23:04.183Z,61.80
2018-10-11T07:25:33.408Z,61.60
2018-10-11T07:28:02.544Z,63.00
2018-10-11T07:30:31.770Z,60.60
2018-10-11T07:33:00.922Z,60.10
2018-10-11T07:35:30.258Z,59.10
2018-10-11T07:37:59.222Z,60.10
2018-10-11T07:40:28.464Z,60.30
2018-10-11T07:42:58.259Z,58.10
2018-10-11T07:45:27.385Z,57.70
2018-10-11T07:47:56.585Z,57.90
2018-10-11T07:50:25.918Z,56.60
2018-10-11T07:52:55.669Z,56.00
2018-10-11T07:55:24.718Z,54.80
2018-10-11T07:57:53.829Z,53.20
2018-10-11T08:00:22.926Z,50.50
2018-10-11T08:02:52.013Z,50.90
2018-10-11T08:06:50.600Z,49.80
2018-10-11T08:09:19.708Z,50.00
2018-10-11T08:11:49.009Z,47.80
2018-10-11T08:14:18.549Z,45.10
2018-10-11T08:16:48.224Z,44.30
2018-10-11T08:19:17.405Z,40.80
2018-10-11T08:21:46.505Z,39.20
2018-10-11T08:24:16.197Z,38.70
2018-10-11T08:26:45.274Z,39.30
2018-10-11T08:29:14.353Z,39.60
2018-10-11T08:31:43.588Z,38.70
2018-10-11T08:34:13.219Z,37.70
2018-10-11T08:36:42.347Z,37.10
2018-10-11T08:39:12.841Z,38.00
2018-10-11T08:41:42.683Z,37.10
2018-10-11T08:44:13.078Z,36.70
2018-10-11T08:46:42.403Z,35.80
2018-10-11T08:49:11.538Z,33.60
2018-10-11T08:51:40.745Z,32.90
2018-10-11T08:55:19.158Z,31.60
2018-10-11T08:57:48.193Z,31.10
2018-10-11T09:00:17.258Z,30.50
2018-10-11T09:02:46.381Z,31.60
2018-10-11T09:05:15.457Z,31.00
2018-10-11T09:07:44.820Z,30.40
2018-10-11T09:10:14.627Z,29.90
2018-10-11T09:12:43.858Z,30.00
2018-10-11T09:15:13.031Z,29.90
2018-10-11T09:17:42.141Z,29.90
2018-10-11T09:20:11.368Z,28.80
2018-10-11T09:22:40.815Z,29.10
2018-10-11T09:25:09.957Z,29.60
2018-10-11T09:27:39.040Z,28.40
2018-10-11T09:30:08.855Z,27.90
2018-10-11T09:32:38.150Z,27.90
2018-10-11T09:35:07.592Z,26.60
2018-10-11T09:37:36.954Z,26.90
2018-10-11T09:40:06.192Z,27.20
2018-10-11T09:42:35.397Z,26.80
2018-10-11T09:45:04.595Z,25.60
2018-10-11T09:47:33.796Z,24.00
2018-10-11T09:50:03.521Z,25.20
2018-10-11T09:52:32.645Z,25.70
2018-10-11T09:55:01.760Z,24.70
2018-10-11T09:57:33.836Z,24.00
2018-10-11T10:00:04.483Z,22.50
2018-10-11T10:02:33.597Z,21.10
2018-10-11T10:05:03.860Z,22.80
2018-10-11T10:07:33.085Z,23.20
2018-10-11T10:10:02.842Z,23.40
2018-10-11T10:12:32.461Z,24.10
2018-10-11T10:15:01.527Z,26.60
2018-10-11T10:17:30.754Z,25.60
2018-10-11T10:20:00.249Z,24.80
2018-10-11T10:22:29.372Z,24.20
2018-10-11T10:24:59.444Z,24.20
2018-10-11T10:27:29.364Z,23.20
2018-10-11T10:29:58.442Z,23.50
2018-10-11T10:32:27.561Z,22.80
2018-10-11T10:34:56.808Z,22.50
2018-10-11T10:37:25.914Z,22.50
2018-10-11T10:39:55.147Z,23.50
2018-10-11T10:42:24.424Z,22.20
2018-10-11T10:44:53.540Z,21.40
2018-10-11T10:47:22.738Z,20.50
2018-10-11T10:49:51.976Z,20.20
2018-10-11T10:52:21.065Z,20.50
2018-10-11T10:54:50.180Z,20.60
2018-10-11T10:57:20.041Z,20.30
2018-10-11T10:59:49.148Z,20.30
2018-10-11T11:02:18.420Z,20.60
2018-10-11T11:04:47.527Z,20.40
2018-10-11T11:07:16.775Z,21.00
2018-10-11T11:09:46.442Z,20.00
2018-10-11T11:12:15.505Z,19.00
2018-10-11T11:14:45.365Z,18.80
2018-10-11T11:17:14.572Z,18.40
2018-10-11T11:19:44.588Z,18.80
2018-10-11T11:22:13.744Z,18.10
2018-10-11T11:24:42.952Z,17.80
2018-10-11T11:27:12.167Z,17.30
2018-10-11T11:29:41.270Z,17.20
2018-10-11T11:32:10.402Z,17.30
2018-10-11T11:34:39.509Z,16.30
2018-10-11T11:37:09.234Z,16.10
2018-10-11T11:39:38.291Z,16.20
2018-10-11T11:42:07.525Z,17.00
2018-10-11T11:44:36.729Z,17.00
2018-10-11T11:47:06.176Z,17.10
2018-10-11T11:49:35.271Z,17.30
2018-10-11T11:52:04.541Z,16.40
2018-10-11T11:54:33.604Z,15.90
2018-10-11T11:57:02.672Z,16.80
2018-10-11T11:59:31.892Z,16.20
2018-10-11T12:02:01.163Z,16.40
2018-10-11T12:04:30.322Z,15.60
2018-10-11T12:06:59.488Z,16.50
2018-10-11T12:09:28.893Z,16.20
2018-10-11T12:11:58.016Z,15.50
2018-10-11T12:14:27.117Z,16.10
2018-10-11T12:16:56.900Z,17.40
2018-10-11T12:19:26.196Z,16.90
2018-10-11T12:21:56.690Z,16.40
2018-10-11T12:24:25.913Z,16.20
2018-10-11T12:26:55.154Z,15.60
2018-10-11T12:29:24.889Z,17.00
2018-10-11T12:31:54.153Z,17.20
2018-10-11T12:34:23.387Z,16.10
2018-10-11T12:36:52.667Z,17.20
2018-10-11T12:39:22.953Z,16.70
2018-10-11T12:41:52.050Z,16.90
2018-10-11T12:44:21.286Z,17.10
2018-10-11T12:46:50.504Z,17.40
2018-10-11T12:49:19.652Z,18.90
2018-10-11T12:51:48.811Z,20.30
2018-10-11T12:54:18.110Z,18.80
2018-10-11T12:56:47.474Z,19.30
2018-10-11T12:59:16.824Z,18.60
2018-10-11T13:01:46.901Z,18.50
2018-10-11T13:04:15.954Z,18.40
2018-10-11T13:06:45.045Z,18.10
2018-10-11T13:09:14.421Z,19.00
2018-10-11T13:11:43.551Z,19.50
2018-10-11T13:14:12.611Z,20.20
2018-10-11T13:16:41.793Z,20.30
2018-10-11T13:19:10.902Z,22.00
2018-10-11T13:21:40.223Z,23.40
2018-10-11T13:24:09.644Z,23.10
2018-10-11T13:26:38.789Z,23.80
2018-10-11T13:29:07.900Z,25.10
2018-10-11T13:31:37.037Z,26.30
2018-10-11T13:34:06.208Z,25.80
2018-10-11T13:36:35.393Z,27.30
2018-10-11T13:39:05.724Z,26.00
2018-10-11T13:41:35.020Z,26.10
2018-10-11T13:44:04.063Z,26.80
2018-10-11T13:46:33.288Z,25.80
2018-10-11T13:49:02.424Z,26.00
2018-10-11T13:51:31.569Z,26.70
2018-10-11T13:54:00.746Z,26.80
2018-10-11T13:56:29.834Z,26.60
2018-10-11T13:58:59.080Z,25.60
2018-10-11T14:01:28.859Z,25.70
2018-10-11T14:03:59.466Z,26.00
2018-10-11T14:06:28.577Z,25.40
2018-10-11T14:08:57.708Z,24.70
2018-10-11T14:11:27.000Z,25.60
2018-10-11T14:13:56.827Z,25.40
2018-10-11T14:16:26.663Z,25.90
2018-10-11T14:18:55.920Z,27.20
2018-10-11T14:21:25.194Z,27.40
2018-10-11T14:23:54.406Z,28.30
2018-10-11T14:27:53.144Z,27.80
2018-10-11T14:30:22.234Z,27.60
2018-10-11T14:32:51.418Z,27.30
2018-10-11T14:35:20.540Z,27.30
2018-10-11T14:37:49.733Z,27.90
2018-10-11T14:40:18.893Z,29.20
2018-10-11T14:42:48.589Z,29.10
2018-10-11T14:45:17.947Z,28.90
2018-10-11T14:47:47.250Z,28.60
2018-10-11T14:50:16.350Z,29.00
2018-10-11T14:52:45.440Z,29.70
2018-10-11T14:55:15.011Z,32.60
2018-10-11T14:57:44.086Z,32.30
2018-10-11T15:00:13.229Z,29.90
2018-10-11T15:02:43.083Z,28.60
2018-10-11T15:05:12.202Z,28.70
2018-10-11T15:07:41.283Z,31.30
2018-10-11T15:10:10.374Z,32.90
2018-10-11T15:12:39.464Z,28.70
2018-10-11T15:15:08.589Z,29.30
2018-10-11T15:17:37.816Z,31.60
2018-10-11T15:20:07.385Z,34.90
2018-10-11T15:22:36.495Z,32.30
2018-10-11T15:25:06.441Z,30.30
2018-10-11T15:27:35.651Z,29.10
2018-10-11T15:30:05.046Z,28.40
2018-10-11T15:32:34.096Z,28.90
2018-10-11T15:35:03.295Z,29.90
2018-10-11T15:37:32.937Z,29.80
2018-10-11T15:40:01.998Z,29.70
2018-10-11T15:42:32.418Z,30.10
2018-10-11T15:45:01.699Z,31.90
2018-10-11T15:47:31.610Z,33.90
2018-10-11T15:50:00.821Z,34.90
2018-10-11T15:52:30.132Z,35.80
2018-10-11T15:54:59.200Z,34.70
2018-10-11T15:57:28.979Z,36.90
2018-10-11T15:59:58.155Z,37.20
2018-10-11T16:02:27.265Z,37.80
2018-10-11T16:04:56.346Z,38.70
2018-10-11T16:07:25.564Z,39.90
2018-10-11T16:09:54.687Z,41.30
2018-10-11T16:12:23.905Z,43.00
2018-10-11T16:14:52.991Z,43.20
2018-10-11T16:17:22.979Z,42.70
2018-10-11T16:19:53.759Z,44.10
2018-10-11T16:22:22.849Z,45.50
2018-10-11T16:24:52.015Z,47.20
2018-10-11T16:27:22.421Z,47.90
2018-10-11T16:29:51.513Z,48.10
2018-10-11T16:32:20.709Z,48.60
2018-10-11T16:34:50.624Z,48.90
2018-10-11T16:37:19.745Z,50.60
2018-10-11T16:39:49.469Z,51.60
2018-10-11T16:42:18.831Z,52.00
2018-10-11T16:44:48.036Z,52.40
2018-10-11T16:47:17.088Z,53.10
2018-10-11T16:49:47.030Z,53.60
2018-10-11T16:52:16.208Z,55.00
2018-10-11T16:54:46.079Z,55.70
2018-10-11T16:57:16.292Z,56.20
2018-10-11T16:59:45.804Z,57.40
2018-10-11T17:02:15.269Z,58.30
2018-10-11T17:04:44.320Z,58.60
2018-10-11T17:07:13.383Z,59.30
2018-10-11T17:09:42.612Z,59.60
2018-10-11T17:12:11.802Z,60.60
2018-10-11T17:14:40.989Z,60.80
2018-10-11T17:17:10.100Z,61.00
2018-10-11T17:19:39.308Z,61.00
2018-10-11T17:22:08.427Z,61.20
2018-10-11T17:24:37.522Z,62.50
2018-10-11T17:27:06.826Z,62.10
2018-10-11T17:29:35.975Z,62.50
2018-10-11T17:32:05.568Z,63.70
2018-10-11T17:34:34.800Z,64.80
2018-10-11T17:37:03.911Z,64.70
2018-10-11T17:39:32.960Z,63.90
2018-10-11T17:42:02.061Z,63.50
2018-10-11T17:44:31.324Z,63.60
2018-10-11T17:47:00.433Z,64.30
2018-10-11T17:49:29.661Z,64.10
2018-10-11T17:51:58.966Z,65.00
2018-10-11T17:54:28.049Z,65.10
2018-10-11T17:56:57.596Z,63.80
2018-10-11T17:59:26.852Z,64.40
2018-10-11T18:01:55.969Z,64.80
2018-10-11T18:04:25.077Z,64.30
2018-10-11T18:06:54.270Z,64.10
2018-10-11T18:09:23.373Z,63.40
2018-10-11T18:11:52.420Z,63.70
2018-10-11T18:14:21.782Z,64.40
2018-10-11T18:18:20.335Z,64.50
2018-10-11T18:20:49.442Z,64.90
2018-10-11T18:23:18.608Z,66.70
2018-10-11T18:25:47.704Z,66.50
2018-10-11T18:28:16.959Z,67.00
2018-10-11T18:30:46.170Z,66.10
2018-10-11T18:33:16.072Z,67.10
2018-10-11T18:35:45.292Z,66.90
2018-10-11T18:38:14.249Z,67.10
2018-10-11T18:40:43.659Z,66.60
2018-10-11T18:43:12.842Z,66.20
2018-10-11T18:45:42.587Z,66.00
2018-10-11T18:48:11.805Z,65.30
2018-10-11T18:50:40.913Z,64.20
2018-10-11T18:53:10.089Z,63.50
2018-10-11T18:55:39.128Z,64.90
2018-10-11T18:58:08.448Z,67.10
2018-10-11T19:00:37.585Z,67.60
2018-10-11T19:03:06.666Z,68.40
2018-10-11T19:05:35.761Z,67.60
2018-10-11T19:08:05.004Z,68.80
2018-10-11T19:10:34.396Z,67.50
2018-10-11T19:13:04.516Z,70.10
2018-10-11T19:15:33.609Z,67.50
2018-10-11T19:18:02.717Z,68.20
2018-10-11T19:20:31.872Z,68.90
2018-10-11T19:23:00.965Z,67.70
2018-10-11T19:25:30.716Z,66.40
2018-10-11T19:28:00.257Z,64.30
2018-10-11T19:30:29.473Z,64.60
2018-10-11T19:32:58.700Z,64.00
2018-10-11T19:35:27.773Z,61.70
2018-10-11T19:39:26.496Z,60.80
2018-10-11T19:41:56.434Z,60.90
2018-10-11T19:44:25.516Z,60.30
2018-10-11T19:46:54.589Z,60.00
2018-10-11T19:49:24.446Z,58.40
2018-10-11T19:51:53.565Z,58.00
2018-10-11T19:54:22.646Z,58.20
2018-10-11T19:56:53.078Z,58.10
2018-10-11T19:59:22.181Z,58.10
2018-10-11T20:01:51.440Z,57.10
2018-10-11T20:04:20.472Z,57.00
2018-10-11T20:06:49.764Z,58.30
2018-10-11T20:09:18.839Z,58.80
2018-10-11T20:11:48.120Z,58.80
2018-10-11T20:14:17.937Z,58.70
2018-10-11T20:16:47.009Z,58.60
2018-10-11T20:19:16.198Z,59.00
2018-10-11T20:21:45.457Z,59.40
2018-10-11T20:24:14.504Z,59.70
2018-10-11T20:26:43.711Z,60.00
2018-10-11T20:29:13.633Z,60.10
2018-10-11T20:31:42.890Z,60.10
2018-10-11T20:34:12.074Z,60.10
2018-10-11T20:36:41.307Z,61.90
2018-10-11T20:39:11.255Z,61.60
2018-10-11T20:41:40.345Z,62.50
2018-10-11T20:44:09.505Z,61.30
2018-10-11T20:46:38.819Z,60.40
2018-10-11T20:49:08.566Z,59.90
2018-10-11T20:51:38.632Z,62.40
2018-10-11T20:54:07.668Z,60.80
2018-10-11T20:56:36.858Z,61.30
2018-10-11T20:59:06.303Z,62.90
2018-10-11T21:01:35.395Z,63.50
2018-10-11T21:04:04.463Z,64.00
2018-10-11T21:06:33.593Z,63.40
2018-10-11T21:09:02.744Z,64.00
2018-10-11T21:11:31.790Z,63.50
2018-10-11T21:14:01.670Z,63.70
2018-10-11T21:16:31.228Z,64.10
2018-10-11T21:19:00.490Z,65.80
2018-10-11T21:21:29.873Z,66.10
2018-10-11T21:23:58.951Z,66.70
2018-10-11T21:26:28.499Z,65.80
2018-10-11T21:28:57.981Z,66.40
2018-10-11T21:31:27.074Z,67.90
2018-10-11T21:33:56.208Z,69.30
2018-10-11T21:36:25.290Z,70.20
2018-10-11T21:38:54.478Z,71.40
2018-10-11T21:41:24.428Z,71.60
2018-10-11T21:43:53.566Z,71.60
2018-10-11T21:46:23.444Z,72.30
2018-10-11T21:53:31.116Z,71.80
2018-10-11T21:56:00.225Z,71.80
2018-10-11T21:58:29.299Z,73.40
2018-10-11T22:01:03.852Z,72.30
2018-10-11T22:03:33.500Z,72.60
2018-10-11T22:06:02.631Z,73.10
2018-10-11T22:08:31.756Z,72.90
2018-10-11T22:11:00.852Z,72.60
2018-10-11T22:13:29.924Z,72.60
2018-10-11T22:15:59.005Z,72.30
2018-10-11T22:18:28.624Z,72.50
2018-10-11T22:20:57.761Z,71.90
2018-10-11T22:23:26.785Z,73.10
2018-10-11T22:25:55.880Z,74.20
2018-10-11T22:28:25.133Z,75.10
2018-10-11T22:30:54.834Z,75.00
2018-10-11T22:33:24.614Z,74.00
2018-10-11T22:35:54.055Z,73.40
2018-10-11T22:38:23.259Z,73.50
2018-10-11T22:40:52.476Z,74.10
2018-10-11T22:43:21.661Z,73.70
2018-10-11T22:45:50.807Z,73.60
2018-10-11T22:48:19.880Z,73.40
2018-10-11T22:50:49.103Z,73.50
2018-10-11T22:53:18.303Z,73.80
2018-10-11T22:55:47.578Z,73.60
2018-10-11T22:58:16.991Z,74.50
2018-10-11T23:00:46.842Z,74.20
2018-10-11T23:03:16.096Z,74.90
2018-10-11T23:05:45.490Z,75.80
2018-10-11T23:08:14.538Z,76.00
2018-10-11T23:10:43.624Z,75.20
2018-10-11T23:13:12.712Z,74.90
2018-10-11T23:15:41.909Z,76.50
2018-10-11T23:18:11.146Z,77.40
2018-10-11T23:20:41.029Z,77.30
2018-10-11T23:23:10.709Z,77.00
2018-10-11T23:25:39.866Z,76.40
2018-10-11T23:28:09.043Z,75.60
2018-10-11T23:30:38.192Z,75.80
2018-10-11T23:33:07.989Z,75.60
2018-10-11T23:35:37.069Z,75.30
2018-10-11T23:38:06.799Z,76.10
2018-10-11T23:40:36.022Z,74.90
2018-10-11T23:43:05.256Z,74.90
2018-10-11T23:45:34.402Z,76.10
2018-10-11T23:48:03.497Z,75.30
2018-10-11T23:50:32.641Z,75.80
2018-10-11T23:53:01.889Z,75.90
2018-10-11T23:55:32.428Z,76.50
2018-10-11T23:58:02.320Z,76.40
